sensor_id;sensor_type;location;lat;lon;timestamp;P1;durP1;ratioP1;P2;durP2;ratioP2
28180;SDS011;15464;50.988;10.318;2023-01-13T00:01:04;2.50;;;0.60;;
28180;SDS011;15464;50.988;10.318;2023-01-13T00:03:35;0.77;;;0.55;;
28180;SDS011;15464;50.988;10.318;2023-01-13T00:06:02;1.27;;;0.50;;
28180;SDS011;15464;50.988;10.318;2023-01-13T00:08:30;1.05;;;0.55;;
28180;SDS011;15464;50.988;10.318;2023-01-13T00:10:57;0.68;;;0.50;;
28180;SDS011;15464;50.988;10.318;2023-01-13T00:13:24;0.95;;;0.40;;
28180;SDS011;15464;50.988;10.318;2023-01-13T00:15:55;1.35;;;0.50;;
28180;SDS011;15464;50.988;10.318;2023-01-13T00:18:32;0.70;;;0.50;;
28180;SDS011;15464;50.988;10.318;2023-01-13T00:21:03;0.73;;;0.50;;
28180;SDS011;15464;50.988;10.318;2023-01-13T00:23:38;0.98;;;0.52;;
28180;SDS011;15464;50.988;10.318;2023-01-13T00:26:07;1.38;;;0.52;;
28180;SDS011;15464;50.988;10.318;2023-01-13T00:28:36;0.45;;;0.45;;
28180;SDS011;15464;50.988;10.318;2023-01-13T00:31:10;0.80;;;0.80;;
28180;SDS011;15464;50.988;10.318;2023-01-13T00:33:38;1.38;;;0.70;;
28180;SDS011;15464;50.988;10.318;2023-01-13T00:36:06;0.50;;;0.40;;
28180;SDS011;15464;50.988;10.318;2023-01-13T00:38:34;0.40;;;0.38;;
28180;SDS011;15464;50.988;10.318;2023-01-13T00:41:20;0.98;;;0.50;;
28180;SDS011;15464;50.988;10.318;2023-01-13T00:43:49;0.50;;;0.40;;
28180;SDS011;15464;50.988;10.318;2023-01-13T00:46:17;0.50;;;0.50;;
28180;SDS011;15464;50.988;10.318;2023-01-13T00:48:46;0.60;;;0.40;;
28180;SDS011;15464;50.988;10.318;2023-01-13T00:51:14;0.50;;;0.47;;
28180;SDS011;15464;50.988;10.318;2023-01-13T00:53:46;0.80;;;0.60;;
28180;SDS011;15464;50.988;10.318;2023-01-13T00:56:21;3.17;;;0.75;;
28180;SDS011;15464;50.988;10.318;2023-01-13T00:59:08;0.82;;;0.55;;
28180;SDS011;15464;50.988;10.318;2023-01-13T01:01:39;0.63;;;0.50;;
28180;SDS011;15464;50.988;10.318;2023-01-13T01:04:07;0.60;;;0.30;;
28180;SDS011;15464;50.988;10.318;2023-01-13T01:06:34;1.00;;;0.52;;
28180;SDS011;15464;50.988;10.318;2023-01-13T01:09:01;0.82;;;0.50;;
28180;SDS011;15464;50.988;10.318;2023-01-13T01:11:28;1.20;;;0.50;;
28180;SDS011;15464;50.988;10.318;2023-01-13T01:13:57;0.47;;;0.40;;
28180;SDS011;15464;50.988;10.318;2023-01-13T01:16:26;0.50;;;0.47;;
28180;SDS011;15464;50.988;10.318;2023-01-13T01:18:54;0.70;;;0.43;;
28180;SDS011;15464;50.988;10.318;2023-01-13T01:21:23;1.33;;;0.60;;
28180;SDS011;15464;50.988;10.318;2023-01-13T01:23:51;1.33;;;0.40;;
28180;SDS011;15464;50.988;10.318;2023-01-13T01:26:19;0.50;;;0.40;;
28180;SDS011;15464;50.988;10.318;2023-01-13T01:28:48;0.52;;;0.52;;
28180;SDS011;15464;50.988;10.318;2023-01-13T01:31:19;1.92;;;0.40;;
28180;SDS011;15464;50.988;10.318;2023-01-13T01:33:48;0.60;;;0.40;;
28180;SDS011;15464;50.988;10.318;2023-01-13T01:36:16;0.65;;;0.40;;
28180;SDS011;15464;50.988;10.318;2023-01-13T01:38:44;0.40;;;0.40;;
28180;SDS011;15464;50.988;10.318;2023-01-13T01:41:13;0.40;;;0.40;;
28180;SDS011;15464;50.988;10.318;2023-01-13T01:43:55;1.35;;;0.55;;
28180;SDS011;15464;50.988;10.318;2023-01-13T01:46:39;0.95;;;0.50;;
28180;SDS011;15464;50.988;10.318;2023-01-13T01:52:15;1.40;;;0.47;;
28180;SDS011;15464;50.988;10.318;2023-01-13T02:00:27;0.82;;;0.70;;
28180;SDS011;15464;50.988;10.318;2023-01-13T02:02:54;0.50;;;0.50;;
28180;SDS011;15464;50.988;10.318;2023-01-13T02:05:22;0.77;;;0.60;;
28180;SDS011;15464;50.988;10.318;2023-01-13T02:07:50;0.80;;;0.60;;
28180;SDS011;15464;50.988;10.318;2023-01-13T02:10:20;0.38;;;0.38;;
28180;SDS011;15464;50.988;10.318;2023-01-13T02:12:51;0.70;;;0.40;;
28180;SDS011;15464;50.988;10.318;2023-01-13T02:16:01;2.97;;;0.98;;
28180;SDS011;15464;50.988;10.318;2023-01-13T02:24:55;1.30;;;0.50;;
28180;SDS011;15464;50.988;10.318;2023-01-13T02:30:24;1.30;;;0.60;;
28180;SDS011;15464;50.988;10.318;2023-01-13T02:33:32;1.48;;;0.52;;
28180;SDS011;15464;50.988;10.318;2023-01-13T02:41:33;0.88;;;0.52;;
28180;SDS011;15464;50.988;10.318;2023-01-13T02:44:25;0.82;;;0.40;;
28180;SDS011;15464;50.988;10.318;2023-01-13T02:47:03;0.77;;;0.52;;
28180;SDS011;15464;50.988;10.318;2023-01-13T02:49:35;3.30;;;0.60;;
28180;SDS011;15464;50.988;10.318;2023-01-13T02:52:49;1.95;;;0.88;;
28180;SDS011;15464;50.988;10.318;2023-01-13T02:57:55;1.13;;;0.60;;
28180;SDS011;15464;50.988;10.318;2023-01-13T03:02:51;0.75;;;0.60;;
28180;SDS011;15464;50.988;10.318;2023-01-13T03:05:18;1.88;;;0.82;;
28180;SDS011;15464;50.988;10.318;2023-01-13T03:07:57;0.82;;;0.63;;
28180;SDS011;15464;50.988;10.318;2023-01-13T03:19:24;0.95;;;0.65;;
28180;SDS011;15464;50.988;10.318;2023-01-13T03:22:21;0.63;;;0.50;;
28180;SDS011;15464;50.988;10.318;2023-01-13T03:30:18;0.55;;;0.52;;
28180;SDS011;15464;50.988;10.318;2023-01-13T03:33:12;0.75;;;0.55;;
28180;SDS011;15464;50.988;10.318;2023-01-13T03:35:43;1.00;;;0.40;;
28180;SDS011;15464;50.988;10.318;2023-01-13T03:38:16;1.13;;;0.60;;
28180;SDS011;15464;50.988;10.318;2023-01-13T03:40:48;0.68;;;0.40;;
28180;SDS011;15464;50.988;10.318;2023-01-13T03:43:20;0.40;;;0.40;;
28180;SDS011;15464;50.988;10.318;2023-01-13T03:46:15;0.32;;;0.32;;
28180;SDS011;15464;50.988;10.318;2023-01-13T03:48:48;2.95;;;0.63;;
28180;SDS011;15464;50.988;10.318;2023-01-13T03:51:18;0.50;;;0.30;;
28180;SDS011;15464;50.988;10.318;2023-01-13T03:54:00;1.52;;;0.70;;
28180;SDS011;15464;50.988;10.318;2023-01-13T03:56:38;0.90;;;0.57;;
28180;SDS011;15464;50.988;10.318;2023-01-13T03:59:16;1.02;;;0.40;;
28180;SDS011;15464;50.988;10.318;2023-01-13T04:01:50;0.68;;;0.40;;
28180;SDS011;15464;50.988;10.318;2023-01-13T04:04:24;0.73;;;0.57;;
28180;SDS011;15464;50.988;10.318;2023-01-13T04:09:50;1.20;;;0.40;;
28180;SDS011;15464;50.988;10.318;2023-01-13T04:12:25;0.77;;;0.40;;
28180;SDS011;15464;50.988;10.318;2023-01-13T04:15:16;1.10;;;0.50;;
28180;SDS011;15464;50.988;10.318;2023-01-13T04:17:45;1.95;;;0.50;;
28180;SDS011;15464;50.988;10.318;2023-01-13T04:20:13;0.38;;;0.38;;
28180;SDS011;15464;50.988;10.318;2023-01-13T04:22:40;1.33;;;0.50;;
28180;SDS011;15464;50.988;10.318;2023-01-13T04:25:07;0.77;;;0.60;;
28180;SDS011;15464;50.988;10.318;2023-01-13T04:27:34;0.75;;;0.52;;
28180;SDS011;15464;50.988;10.318;2023-01-13T04:30:01;1.20;;;0.52;;
28180;SDS011;15464;50.988;10.318;2023-01-13T04:32:29;0.90;;;0.68;;
28180;SDS011;15464;50.988;10.318;2023-01-13T04:34:56;0.73;;;0.50;;
28180;SDS011;15464;50.988;10.318;2023-01-13T04:37:22;0.93;;;0.47;;
28180;SDS011;15464;50.988;10.318;2023-01-13T04:39:49;1.65;;;0.40;;
28180;SDS011;15464;50.988;10.318;2023-01-13T04:42:16;0.32;;;0.30;;
28180;SDS011;15464;50.988;10.318;2023-01-13T04:44:43;1.02;;;0.40;;
28180;SDS011;15464;50.988;10.318;2023-01-13T04:47:10;0.40;;;0.40;;
28180;SDS011;15464;50.988;10.318;2023-01-13T04:49:36;2.17;;;0.60;;
28180;SDS011;15464;50.988;10.318;2023-01-13T04:52:03;1.00;;;0.50;;
28180;SDS011;15464;50.988;10.318;2023-01-13T04:54:32;0.82;;;0.40;;
28180;SDS011;15464;50.988;10.318;2023-01-13T04:56:59;1.10;;;0.40;;
28180;SDS011;15464;50.988;10.318;2023-01-13T04:59:25;1.27;;;0.50;;
28180;SDS011;15464;50.988;10.318;2023-01-13T05:01:52;0.60;;;0.50;;
28180;SDS011;15464;50.988;10.318;2023-01-13T05:04:19;0.85;;;0.50;;
28180;SDS011;15464;50.988;10.318;2023-01-13T05:06:46;1.45;;;0.50;;
28180;SDS011;15464;50.988;10.318;2023-01-13T05:09:13;0.80;;;0.50;;
28180;SDS011;15464;50.988;10.318;2023-01-13T05:11:41;1.25;;;0.40;;
28180;SDS011;15464;50.988;10.318;2023-01-13T05:14:26;1.95;;;0.40;;
28180;SDS011;15464;50.988;10.318;2023-01-13T05:17:14;0.35;;;0.32;;
28180;SDS011;15464;50.988;10.318;2023-01-13T05:19:45;1.25;;;0.55;;
28180;SDS011;15464;50.988;10.318;2023-01-13T05:22:12;0.85;;;0.30;;
28180;SDS011;15464;50.988;10.318;2023-01-13T05:24:59;0.82;;;0.45;;
28180;SDS011;15464;50.988;10.318;2023-01-13T05:27:44;1.17;;;0.38;;
28180;SDS011;15464;50.988;10.318;2023-01-13T05:30:11;0.45;;;0.40;;
28180;SDS011;15464;50.988;10.318;2023-01-13T05:32:38;0.30;;;0.30;;
28180;SDS011;15464;50.988;10.318;2023-01-13T05:35:05;0.93;;;0.40;;
28180;SDS011;15464;50.988;10.318;2023-01-13T05:37:32;0.52;;;0.30;;
28180;SDS011;15464;50.988;10.318;2023-01-13T05:39:59;1.05;;;0.30;;
28180;SDS011;15464;50.988;10.318;2023-01-13T05:42:44;0.90;;;0.50;;
28180;SDS011;15464;50.988;10.318;2023-01-13T05:45:30;1.58;;;0.40;;
28180;SDS011;15464;50.988;10.318;2023-01-13T05:47:57;0.85;;;0.40;;
28180;SDS011;15464;50.988;10.318;2023-01-13T05:50:24;0.80;;;0.38;;
28180;SDS011;15464;50.988;10.318;2023-01-13T05:52:51;0.47;;;0.20;;
28180;SDS011;15464;50.988;10.318;2023-01-13T05:55:17;1.90;;;0.52;;
28180;SDS011;15464;50.988;10.318;2023-01-13T05:57:44;0.93;;;0.65;;
28180;SDS011;15464;50.988;10.318;2023-01-13T06:00:11;1.52;;;0.52;;
28180;SDS011;15464;50.988;10.318;2023-01-13T06:02:38;0.55;;;0.30;;
28180;SDS011;15464;50.988;10.318;2023-01-13T06:05:05;0.93;;;0.40;;
28180;SDS011;15464;50.988;10.318;2023-01-13T06:07:32;0.80;;;0.47;;
28180;SDS011;15464;50.988;10.318;2023-01-13T06:09:58;0.88;;;0.45;;
28180;SDS011;15464;50.988;10.318;2023-01-13T06:12:25;0.63;;;0.40;;
28180;SDS011;15464;50.988;10.318;2023-01-13T06:14:52;1.17;;;0.57;;
28180;SDS011;15464;50.988;10.318;2023-01-13T06:17:19;1.42;;;0.70;;
28180;SDS011;15464;50.988;10.318;2023-01-13T06:19:45;1.27;;;0.70;;
28180;SDS011;15464;50.988;10.318;2023-01-13T06:22:14;2.88;;;0.60;;
28180;SDS011;15464;50.988;10.318;2023-01-13T06:24:49;2.35;;;0.63;;
28180;SDS011;15464;50.988;10.318;2023-01-13T06:27:19;3.10;;;0.60;;
28180;SDS011;15464;50.988;10.318;2023-01-13T06:29:47;1.95;;;0.68;;
28180;SDS011;15464;50.988;10.318;2023-01-13T06:32:15;2.80;;;0.50;;
28180;SDS011;15464;50.988;10.318;2023-01-13T06:34:46;1.48;;;0.50;;
28180;SDS011;15464;50.988;10.318;2023-01-13T06:37:17;2.92;;;1.10;;
28180;SDS011;15464;50.988;10.318;2023-01-13T06:39:46;2.53;;;0.80;;
28180;SDS011;15464;50.988;10.318;2023-01-13T06:42:14;3.25;;;0.80;;
28180;SDS011;15464;50.988;10.318;2023-01-13T06:44:59;2.45;;;0.60;;
28180;SDS011;15464;50.988;10.318;2023-01-13T06:47:27;2.28;;;0.70;;
28180;SDS011;15464;50.988;10.318;2023-01-13T06:49:53;1.02;;;0.73;;
28180;SDS011;15464;50.988;10.318;2023-01-13T06:52:20;2.92;;;0.65;;
28180;SDS011;15464;50.988;10.318;2023-01-13T06:54:48;3.42;;;0.95;;
28180;SDS011;15464;50.988;10.318;2023-01-13T06:57:15;3.65;;;0.80;;
28180;SDS011;15464;50.988;10.318;2023-01-13T07:30:07;1.33;;;0.57;;
28180;SDS011;15464;50.988;10.318;2023-01-13T07:32:35;3.30;;;1.00;;
28180;SDS011;15464;50.988;10.318;2023-01-13T07:35:01;3.75;;;0.85;;
28180;SDS011;15464;50.988;10.318;2023-01-13T07:37:32;0.85;;;0.40;;
28180;SDS011;15464;50.988;10.318;2023-01-13T07:40:01;5.40;;;1.13;;
28180;SDS011;15464;50.988;10.318;2023-01-13T07:42:31;3.30;;;0.80;;
28180;SDS011;15464;50.988;10.318;2023-01-13T07:45:16;2.33;;;0.80;;
28180;SDS011;15464;50.988;10.318;2023-01-13T07:47:42;3.50;;;0.82;;
28180;SDS011;15464;50.988;10.318;2023-01-13T07:50:09;2.40;;;0.60;;
28180;SDS011;15464;50.988;10.318;2023-01-13T07:52:36;3.10;;;0.88;;
28180;SDS011;15464;50.988;10.318;2023-01-13T07:55:03;2.85;;;0.60;;
28180;SDS011;15464;50.988;10.318;2023-01-13T07:57:30;1.52;;;0.60;;
28180;SDS011;15464;50.988;10.318;2023-01-13T07:59:57;1.20;;;0.63;;
28180;SDS011;15464;50.988;10.318;2023-01-13T08:02:23;3.72;;;0.80;;
28180;SDS011;15464;50.988;10.318;2023-01-13T08:04:50;1.42;;;0.50;;
28180;SDS011;15464;50.988;10.318;2023-01-13T08:07:17;0.52;;;0.40;;
28180;SDS011;15464;50.988;10.318;2023-01-13T08:09:44;3.53;;;1.25;;
28180;SDS011;15464;50.988;10.318;2023-01-13T08:12:10;2.05;;;0.88;;
28180;SDS011;15464;50.988;10.318;2023-01-13T08:14:56;1.80;;;0.70;;
28180;SDS011;15464;50.988;10.318;2023-01-13T08:17:22;3.38;;;0.90;;
28180;SDS011;15464;50.988;10.318;2023-01-13T08:19:49;2.17;;;0.60;;
28180;SDS011;15464;50.988;10.318;2023-01-13T08:22:16;2.42;;;0.70;;
28180;SDS011;15464;50.988;10.318;2023-01-13T08:24:43;1.73;;;0.88;;
28180;SDS011;15464;50.988;10.318;2023-01-13T08:27:09;2.60;;;1.00;;
28180;SDS011;15464;50.988;10.318;2023-01-13T08:29:36;2.33;;;0.75;;
28180;SDS011;15464;50.988;10.318;2023-01-13T08:32:03;1.92;;;0.70;;
28180;SDS011;15464;50.988;10.318;2023-01-13T08:34:29;1.95;;;0.70;;
28180;SDS011;15464;50.988;10.318;2023-01-13T08:36:57;2.40;;;0.60;;
28180;SDS011;15464;50.988;10.318;2023-01-13T08:39:23;2.22;;;0.75;;
28180;SDS011;15464;50.988;10.318;2023-01-13T08:41:50;2.63;;;0.90;;
28180;SDS011;15464;50.988;10.318;2023-01-13T08:44:28;2.58;;;0.70;;
28180;SDS011;15464;50.988;10.318;2023-01-13T08:46:56;2.85;;;0.70;;
28180;SDS011;15464;50.988;10.318;2023-01-13T08:49:24;2.95;;;0.80;;
28180;SDS011;15464;50.988;10.318;2023-01-13T08:51:51;1.17;;;0.80;;
28180;SDS011;15464;50.988;10.318;2023-01-13T08:54:18;7.18;;;4.30;;
28180;SDS011;15464;50.988;10.318;2023-01-13T08:56:45;3.22;;;0.80;;
28180;SDS011;15464;50.988;10.318;2023-01-13T08:59:12;3.08;;;0.90;;
28180;SDS011;15464;50.988;10.318;2023-01-13T09:01:41;2.10;;;0.70;;
28180;SDS011;15464;50.988;10.318;2023-01-13T09:04:16;2.90;;;1.00;;
28180;SDS011;15464;50.988;10.318;2023-01-13T09:06:45;2.70;;;0.80;;
28180;SDS011;15464;50.988;10.318;2023-01-13T09:09:12;2.50;;;1.15;;
28180;SDS011;15464;50.988;10.318;2023-01-13T09:11:41;4.28;;;1.00;;
28180;SDS011;15464;50.988;10.318;2023-01-13T09:14:29;2.47;;;1.10;;
28180;SDS011;15464;50.988;10.318;2023-01-13T09:16:58;1.70;;;0.65;;
28180;SDS011;15464;50.988;10.318;2023-01-13T09:19:26;2.20;;;1.07;;
28180;SDS011;15464;50.988;10.318;2023-01-13T09:21:54;3.25;;;1.08;;
28180;SDS011;15464;50.988;10.318;2023-01-13T09:24:22;1.85;;;1.20;;
28180;SDS011;15464;50.988;10.318;2023-01-13T09:26:49;2.35;;;1.20;;
28180;SDS011;15464;50.988;10.318;2023-01-13T09:29:16;5.22;;;1.25;;
28180;SDS011;15464;50.988;10.318;2023-01-13T09:31:43;2.83;;;1.23;;
28180;SDS011;15464;50.988;10.318;2023-01-13T09:34:12;4.28;;;1.02;;
28180;SDS011;15464;50.988;10.318;2023-01-13T09:37:02;4.32;;;1.05;;
28180;SDS011;15464;50.988;10.318;2023-01-13T09:39:31;3.15;;;1.00;;
28180;SDS011;15464;50.988;10.318;2023-01-13T09:42:01;3.72;;;1.00;;
28180;SDS011;15464;50.988;10.318;2023-01-13T09:48:01;3.47;;;1.10;;
28180;SDS011;15464;50.988;10.318;2023-01-13T09:50:35;6.80;;;1.25;;
28180;SDS011;15464;50.988;10.318;2023-01-13T09:53:14;5.07;;;1.15;;
28180;SDS011;15464;50.988;10.318;2023-01-13T09:55:46;4.13;;;1.58;;
28180;SDS011;15464;50.988;10.318;2023-01-13T09:58:14;3.28;;;1.15;;
28180;SDS011;15464;50.988;10.318;2023-01-13T10:00:45;5.32;;;1.13;;
28180;SDS011;15464;50.988;10.318;2023-01-13T10:03:28;3.00;;;1.25;;
28180;SDS011;15464;50.988;10.318;2023-01-13T10:05:59;4.75;;;1.85;;
28180;SDS011;15464;50.988;10.318;2023-01-13T10:08:49;3.15;;;1.10;;
28180;SDS011;15464;50.988;10.318;2023-01-13T10:11:18;4.93;;;1.23;;
28180;SDS011;15464;50.988;10.318;2023-01-13T10:14:16;2.92;;;1.02;;
28180;SDS011;15464;50.988;10.318;2023-01-13T10:16:47;4.53;;;1.25;;
28180;SDS011;15464;50.988;10.318;2023-01-13T10:19:37;3.17;;;1.23;;
28180;SDS011;15464;50.988;10.318;2023-01-13T10:28:08;3.22;;;1.38;;
28180;SDS011;15464;50.988;10.318;2023-01-13T10:30:38;4.63;;;1.20;;
28180;SDS011;15464;50.988;10.318;2023-01-13T10:33:41;8.45;;;1.45;;
28180;SDS011;15464;50.988;10.318;2023-01-13T10:36:01;5.25;;;1.83;;
28180;SDS011;15464;50.988;10.318;2023-01-13T10:41:04;3.75;;;1.20;;
28180;SDS011;15464;50.988;10.318;2023-01-13T10:43:37;4.03;;;1.50;;
28180;SDS011;15464;50.988;10.318;2023-01-13T10:46:05;3.30;;;1.02;;
28180;SDS011;15464;50.988;10.318;2023-01-13T10:48:43;3.38;;;0.85;;
28180;SDS011;15464;50.988;10.318;2023-01-13T10:54:13;3.55;;;1.20;;
28180;SDS011;15464;50.988;10.318;2023-01-13T10:56:38;4.82;;;1.05;;
28180;SDS011;15464;50.988;10.318;2023-01-13T11:01:40;6.13;;;1.73;;
28180;SDS011;15464;50.988;10.318;2023-01-13T11:04:38;4.88;;;1.65;;
28180;SDS011;15464;50.988;10.318;2023-01-13T11:07:20;2.72;;;1.17;;
28180;SDS011;15464;50.988;10.318;2023-01-13T11:15:18;3.08;;;1.00;;
28180;SDS011;15464;50.988;10.318;2023-01-13T11:17:57;3.50;;;1.10;;
28180;SDS011;15464;50.988;10.318;2023-01-13T11:20:38;2.08;;;0.80;;
28180;SDS011;15464;50.988;10.318;2023-01-13T11:23:12;2.58;;;0.90;;
28180;SDS011;15464;50.988;10.318;2023-01-13T11:25:48;4.03;;;0.80;;
28180;SDS011;15464;50.988;10.318;2023-01-13T11:33:19;1.63;;;0.90;;
28180;SDS011;15464;50.988;10.318;2023-01-13T11:36:10;3.38;;;0.90;;
28180;SDS011;15464;50.988;10.318;2023-01-13T11:38:48;2.95;;;0.90;;
28180;SDS011;15464;50.988;10.318;2023-01-13T11:46:35;2.15;;;0.73;;
28180;SDS011;15464;50.988;10.318;2023-01-13T11:49:02;2.40;;;1.10;;
28180;SDS011;15464;50.988;10.318;2023-01-13T11:51:40;6.18;;;1.52;;
28180;SDS011;15464;50.988;10.318;2023-01-13T11:54:19;4.75;;;1.45;;
28180;SDS011;15464;50.988;10.318;2023-01-13T12:10:58;4.97;;;1.30;;
28180;SDS011;15464;50.988;10.318;2023-01-13T12:19:09;5.10;;;1.20;;
28180;SDS011;15464;50.988;10.318;2023-01-13T12:24:37;5.38;;;1.52;;
28180;SDS011;15464;50.988;10.318;2023-01-13T12:29:44;2.47;;;0.90;;
28180;SDS011;15464;50.988;10.318;2023-01-13T12:32:14;5.47;;;1.55;;
28180;SDS011;15464;50.988;10.318;2023-01-13T12:34:52;5.43;;;1.17;;
28180;SDS011;15464;50.988;10.318;2023-01-13T12:37:51;6.00;;;1.88;;
28180;SDS011;15464;50.988;10.318;2023-01-13T12:40:31;7.13;;;1.27;;
28180;SDS011;15464;50.988;10.318;2023-01-13T12:43:30;4.93;;;1.35;;
28180;SDS011;15464;50.988;10.318;2023-01-13T12:51:29;5.60;;;1.65;;
28180;SDS011;15464;50.988;10.318;2023-01-13T12:54:01;3.63;;;1.40;;
28180;SDS011;15464;50.988;10.318;2023-01-13T12:56:48;4.35;;;1.27;;
28180;SDS011;15464;50.988;10.318;2023-01-13T13:01:43;7.60;;;1.60;;
28180;SDS011;15464;50.988;10.318;2023-01-13T13:04:12;6.95;;;1.90;;
28180;SDS011;15464;50.988;10.318;2023-01-13T13:06:42;5.97;;;1.60;;
28180;SDS011;15464;50.988;10.318;2023-01-13T13:09:25;6.22;;;2.05;;
28180;SDS011;15464;50.988;10.318;2023-01-13T13:11:56;7.68;;;2.10;;
28180;SDS011;15464;50.988;10.318;2023-01-13T13:19:53;8.35;;;1.88;;
28180;SDS011;15464;50.988;10.318;2023-01-13T13:27:18;4.30;;;1.33;;
28180;SDS011;15464;50.988;10.318;2023-01-13T13:30:13;8.52;;;1.67;;
28180;SDS011;15464;50.988;10.318;2023-01-13T13:38:21;9.02;;;1.55;;
28180;SDS011;15464;50.988;10.318;2023-01-13T13:41:18;7.13;;;2.25;;
28180;SDS011;15464;50.988;10.318;2023-01-13T13:44:13;5.45;;;1.52;;
28180;SDS011;15464;50.988;10.318;2023-01-13T13:47:03;3.97;;;1.40;;
28180;SDS011;15464;50.988;10.318;2023-01-13T13:52:18;5.63;;;1.50;;
28180;SDS011;15464;50.988;10.318;2023-01-13T13:54:47;6.63;;;1.52;;
28180;SDS011;15464;50.988;10.318;2023-01-13T13:57:26;6.68;;;1.60;;
28180;SDS011;15464;50.988;10.318;2023-01-13T13:59:58;5.05;;;1.50;;
28180;SDS011;15464;50.988;10.318;2023-01-13T14:02:27;6.43;;;1.70;;
28180;SDS011;15464;50.988;10.318;2023-01-13T14:05:06;5.10;;;1.63;;
28180;SDS011;15464;50.988;10.318;2023-01-13T14:07:43;7.53;;;1.85;;
28180;SDS011;15464;50.988;10.318;2023-01-13T14:10:21;7.28;;;1.65;;
28180;SDS011;15464;50.988;10.318;2023-01-13T14:12:51;7.03;;;2.22;;
28180;SDS011;15464;50.988;10.318;2023-01-13T14:15:22;5.05;;;1.60;;
28180;SDS011;15464;50.988;10.318;2023-01-13T14:17:52;9.02;;;1.92;;
28180;SDS011;15464;50.988;10.318;2023-01-13T14:20:20;9.02;;;2.13;;
28180;SDS011;15464;50.988;10.318;2023-01-13T14:22:47;7.88;;;2.03;;
28180;SDS011;15464;50.988;10.318;2023-01-13T14:30:57;9.10;;;1.80;;
28180;SDS011;15464;50.988;10.318;2023-01-13T14:38:44;7.27;;;1.87;;
28180;SDS011;15464;50.988;10.318;2023-01-13T14:43:54;8.85;;;1.75;;
28180;SDS011;15464;50.988;10.318;2023-01-13T14:46:34;6.57;;;1.55;;
28180;SDS011;15464;50.988;10.318;2023-01-13T14:49:10;6.78;;;1.50;;
28180;SDS011;15464;50.988;10.318;2023-01-13T14:51:49;5.45;;;1.50;;
28180;SDS011;15464;50.988;10.318;2023-01-13T15:08:28;6.65;;;1.88;;
28180;SDS011;15464;50.988;10.318;2023-01-13T15:10:46;9.98;;;1.85;;
28180;SDS011;15464;50.988;10.318;2023-01-13T15:15:58;5.97;;;1.80;;
28180;SDS011;15464;50.988;10.318;2023-01-13T15:18:28;9.63;;;1.67;;
28180;SDS011;15464;50.988;10.318;2023-01-13T15:20:55;10.48;;;2.13;;
28180;SDS011;15464;50.988;10.318;2023-01-13T15:23:22;5.85;;;1.92;;
28180;SDS011;15464;50.988;10.318;2023-01-13T15:25:49;4.10;;;1.45;;
28180;SDS011;15464;50.988;10.318;2023-01-13T15:28:16;5.70;;;1.25;;
28180;SDS011;15464;50.988;10.318;2023-01-13T15:30:51;4.10;;;1.55;;
28180;SDS011;15464;50.988;10.318;2023-01-13T15:33:20;3.33;;;1.23;;
28180;SDS011;15464;50.988;10.318;2023-01-13T15:35:49;4.22;;;1.27;;
28180;SDS011;15464;50.988;10.318;2023-01-13T15:38:21;5.15;;;1.45;;
28180;SDS011;15464;50.988;10.318;2023-01-13T15:40:49;4.90;;;1.50;;
28180;SDS011;15464;50.988;10.318;2023-01-13T15:43:17;5.38;;;1.42;;
28180;SDS011;15464;50.988;10.318;2023-01-13T15:46:16;3.42;;;1.35;;
28180;SDS011;15464;50.988;10.318;2023-01-13T15:49:04;3.95;;;1.20;;
28180;SDS011;15464;50.988;10.318;2023-01-13T15:51:52;7.90;;;2.00;;
28180;SDS011;15464;50.988;10.318;2023-01-13T15:54:19;7.07;;;2.00;;
28180;SDS011;15464;50.988;10.318;2023-01-13T15:56:49;5.90;;;1.42;;
28180;SDS011;15464;50.988;10.318;2023-01-13T15:59:18;4.70;;;1.55;;
28180;SDS011;15464;50.988;10.318;2023-01-13T16:01:49;5.38;;;1.45;;
28180;SDS011;15464;50.988;10.318;2023-01-13T16:04:16;6.68;;;2.17;;
28180;SDS011;15464;50.988;10.318;2023-01-13T16:06:42;6.53;;;1.80;;
28180;SDS011;15464;50.988;10.318;2023-01-13T16:09:13;5.53;;;1.98;;
28180;SDS011;15464;50.988;10.318;2023-01-13T16:11:40;6.55;;;2.10;;
28180;SDS011;15464;50.988;10.318;2023-01-13T16:14:07;9.48;;;2.38;;
28180;SDS011;15464;50.988;10.318;2023-01-13T16:16:34;5.85;;;2.55;;
28180;SDS011;15464;50.988;10.318;2023-01-13T16:19:01;9.25;;;2.70;;
28180;SDS011;15464;50.988;10.318;2023-01-13T16:21:28;7.30;;;2.00;;
28180;SDS011;15464;50.988;10.318;2023-01-13T16:23:55;6.65;;;1.63;;
28180;SDS011;15464;50.988;10.318;2023-01-13T16:26:23;7.50;;;2.42;;
28180;SDS011;15464;50.988;10.318;2023-01-13T16:28:52;7.20;;;2.35;;
28180;SDS011;15464;50.988;10.318;2023-01-13T16:33:49;6.88;;;2.40;;
28180;SDS011;15464;50.988;10.318;2023-01-13T16:36:16;10.35;;;2.20;;
28180;SDS011;15464;50.988;10.318;2023-01-13T16:38:45;7.95;;;2.45;;
28180;SDS011;15464;50.988;10.318;2023-01-13T16:41:12;10.82;;;2.50;;
28180;SDS011;15464;50.988;10.318;2023-01-13T16:43:39;8.27;;;2.55;;
28180;SDS011;15464;50.988;10.318;2023-01-13T16:46:13;5.28;;;1.90;;
28180;SDS011;15464;50.988;10.318;2023-01-13T16:48:52;7.68;;;1.95;;
28180;SDS011;15464;50.988;10.318;2023-01-13T16:51:20;8.60;;;2.45;;
28180;SDS011;15464;50.988;10.318;2023-01-13T16:53:49;7.23;;;2.53;;
28180;SDS011;15464;50.988;10.318;2023-01-13T16:58:46;10.15;;;2.55;;
28180;SDS011;15464;50.988;10.318;2023-01-13T17:01:16;12.10;;;2.42;;
28180;SDS011;15464;50.988;10.318;2023-01-13T17:03:46;8.50;;;1.90;;
28180;SDS011;15464;50.988;10.318;2023-01-13T17:06:17;6.93;;;1.30;;
28180;SDS011;15464;50.988;10.318;2023-01-13T17:08:48;7.45;;;1.55;;
28180;SDS011;15464;50.988;10.318;2023-01-13T17:11:14;7.15;;;1.95;;
28180;SDS011;15464;50.988;10.318;2023-01-13T17:13:41;6.40;;;1.88;;
28180;SDS011;15464;50.988;10.318;2023-01-13T17:16:14;5.85;;;1.63;;
28180;SDS011;15464;50.988;10.318;2023-01-13T17:18:44;5.88;;;1.80;;
28180;SDS011;15464;50.988;10.318;2023-01-13T17:21:13;4.15;;;1.50;;
28180;SDS011;15464;50.988;10.318;2023-01-13T17:23:41;5.57;;;1.83;;
28180;SDS011;15464;50.988;10.318;2023-01-13T17:26:13;6.50;;;1.58;;
28180;SDS011;15464;50.988;10.318;2023-01-13T17:28:50;5.82;;;1.95;;
28180;SDS011;15464;50.988;10.318;2023-01-13T17:31:17;6.00;;;1.67;;
28180;SDS011;15464;50.988;10.318;2023-01-13T17:33:44;6.57;;;1.58;;
28180;SDS011;15464;50.988;10.318;2023-01-13T17:36:11;4.18;;;1.27;;
28180;SDS011;15464;50.988;10.318;2023-01-13T17:38:38;6.07;;;1.83;;
28180;SDS011;15464;50.988;10.318;2023-01-13T17:41:04;4.97;;;1.55;;
28180;SDS011;15464;50.988;10.318;2023-01-13T17:43:31;6.20;;;1.65;;
28180;SDS011;15464;50.988;10.318;2023-01-13T17:45:58;7.85;;;2.53;;
28180;SDS011;15464;50.988;10.318;2023-01-13T17:48:25;7.32;;;2.15;;
28180;SDS011;15464;50.988;10.318;2023-01-13T17:50:52;9.57;;;2.22;;
28180;SDS011;15464;50.988;10.318;2023-01-13T17:53:19;5.88;;;2.28;;
28180;SDS011;15464;50.988;10.318;2023-01-13T17:55:50;7.20;;;2.10;;
28180;SDS011;15464;50.988;10.318;2023-01-13T17:58:19;3.67;;;1.63;;
28180;SDS011;15464;50.988;10.318;2023-01-13T18:00:47;4.03;;;1.20;;
28180;SDS011;15464;50.988;10.318;2023-01-13T18:03:14;5.95;;;1.63;;
28180;SDS011;15464;50.988;10.318;2023-01-13T18:05:42;5.33;;;1.47;;
28180;SDS011;15464;50.988;10.318;2023-01-13T18:08:10;7.68;;;2.50;;
28180;SDS011;15464;50.988;10.318;2023-01-13T18:10:37;3.38;;;1.73;;
28180;SDS011;15464;50.988;10.318;2023-01-13T18:13:03;4.18;;;1.65;;
28180;SDS011;15464;50.988;10.318;2023-01-13T18:15:31;6.60;;;1.70;;
28180;SDS011;15464;50.988;10.318;2023-01-13T18:17:58;4.03;;;1.30;;